CheckWX is a tool to help pilots better visualize weather data.  It is not intended as a substitute for an official pre-flight weather briefing.

05:08:09 UTC

KSGT METAR
Stuttgart Municipal Carl Humphrey Field Airport
Stuttgart, Arkansas, USA
Current

12 mins ago

KSGT 230456Z AUTO 27004KT 10SM FEW023 OVC050 25/23 A2998 RMK AO2 LTG DSNT S-NW SLP149 T02500233 PNO $
Observed
Aug-23 @ 04:56 UTC
Wind
  • 270° at 4 KTS
Visibility
10 SM
Flight Rules
VFR
Cloud Levels
  • Few at 2,300' AGL
  • Overcast at 5,000' AGL
Temperature
25°C / 77°F
Dewpoint
23°C / 73°F
Humidity
89%
Altimeter
29.98" Hg
Pressure
1015.22 hPa
Previous

1 hour ago

KSGT 230356Z AUTO 00000KT 10SM FEW060 24/23 A2997 RMK AO2 LTG DSNT W AND NW SLP146 T02440233 PNO $
Observed
Aug-23 @ 03:56 UTC
Visibility
10 SM
Flight Rules
VFR
Cloud Levels
  • Few at 6,000' AGL
Temperature
24°C / 75°F
Dewpoint
23°C / 73°F
Humidity
94%
Altimeter
29.97" Hg
Pressure
1014.92 hPa
Previous

2 hours ago

KSGT 230256Z AUTO 15004KT 10SM CLR 26/22 A2995 RMK AO2 SLP139 6//// T02560222 53013 PNO $
Observed
Aug-23 @ 02:56 UTC
Wind
  • 150° at 4 KTS
Visibility
10 SM
Flight Rules
VFR
Cloud Levels
  • Clear skies
Temperature
26°C / 79°F
Dewpoint
22°C / 72°F
Humidity
79%
Altimeter
29.95" Hg
Pressure
1014.22 hPa